createdAt,value
2022-08-29T00:00:01.946Z,99709.34
2022-08-29T00:02:52.143Z,99709.78
2022-08-29T00:05:25.171Z,99709.34
2022-08-29T00:07:58.832Z,99709.91
2022-08-29T00:10:27.774Z,99715.69
2022-08-29T00:12:57.902Z,99711.75
2022-08-29T00:15:28.426Z,99708.34
2022-08-29T00:17:55.744Z,99716.59
2022-08-29T00:20:34.337Z,99715.09
2022-08-29T00:23:06.479Z,99705.78
2022-08-29T00:25:34.337Z,99704.47
2022-08-29T00:28:02.277Z,99700.19
2022-08-29T00:30:30.645Z,99700.34
2022-08-29T00:33:00.825Z,99705.38
2022-08-29T00:35:37.291Z,99706.13
2022-08-29T00:38:06.818Z,99703.31
2022-08-29T00:40:38.906Z,99706.25
2022-08-29T00:43:06.608Z,99701.56
2022-08-29T00:45:34.667Z,99706.00
2022-08-29T00:48:15.346Z,99703.94
2022-08-29T00:50:50.513Z,99702.91
2022-08-29T00:53:23.194Z,99700.97
2022-08-29T00:55:51.318Z,99698.00
2022-08-29T00:58:28.332Z,99698.91
2022-08-29T01:00:58.470Z,99695.19
2022-08-29T01:03:27.067Z,99693.13
2022-08-29T01:05:54.685Z,99695.78
2022-08-29T01:08:21.888Z,99701.81
2022-08-29T01:11:07.321Z,99700.50
2022-08-29T01:13:41.906Z,99694.16
2022-08-29T01:16:11.100Z,99697.84
2022-08-29T01:18:41.062Z,99699.34
2022-08-29T01:21:13.606Z,99705.53
2022-08-29T01:24:10.419Z,99704.47
2022-08-29T01:26:37.532Z,99705.78
2022-08-29T01:29:05.063Z,99713.81
2022-08-29T01:31:56.678Z,99704.63
2022-08-29T01:34:28.790Z,99698.25
2022-08-29T01:37:01.357Z,99705.22
2022-08-29T01:39:34.031Z,99704.78
2022-08-29T01:42:05.419Z,99710.25
2022-08-29T01:44:33.650Z,99711.75
2022-08-29T01:47:03.322Z,99710.06
2022-08-29T01:49:33.618Z,99714.38
2022-08-29T01:52:02.125Z,99720.59
2022-08-29T01:54:30.080Z,99719.06
2022-08-29T01:56:57.381Z,99712.16
2022-08-29T01:59:27.920Z,99707.44
2022-08-29T02:02:40.364Z,99707.59
2022-08-29T02:05:08.935Z,99719.00
2022-08-29T02:07:35.925Z,99719.00
2022-08-29T02:10:03.774Z,99721.81
2022-08-29T02:12:31.698Z,99723.09
2022-08-29T02:14:59.918Z,99728.72
2022-08-29T02:17:28.105Z,99728.72
2022-08-29T02:19:55.214Z,99731.41
2022-08-29T02:22:24.916Z,99724.09
2022-08-29T02:24:51.883Z,99721.47
2022-08-29T02:27:19.028Z,99730.47
2022-08-29T02:29:46.199Z,99735.34
2022-08-29T02:32:14.869Z,99738.47
2022-08-29T02:34:44.687Z,99732.69
2022-08-29T02:37:17.686Z,99739.97
2022-08-29T02:39:47.150Z,99731.53
2022-08-29T02:42:14.202Z,99741.47
2022-08-29T02:44:41.153Z,99740.72
2022-08-29T02:47:09.386Z,99741.72
2022-08-29T02:49:36.531Z,99736.09
2022-08-29T02:52:06.721Z,99733.13
2022-08-29T02:54:34.833Z,99738.16
2022-08-29T02:57:03.004Z,99725.63
2022-08-29T02:59:29.951Z,99726.91
2022-08-29T03:01:57.171Z,99730.88
2022-08-29T03:04:24.153Z,99725.09
2022-08-29T03:06:51.118Z,99727.56
2022-08-29T03:09:18.183Z,99733.34
2022-08-29T03:11:47.627Z,99734.53
2022-08-29T03:14:19.132Z,99736.41
2022-08-29T03:16:46.439Z,99743.19
2022-08-29T03:19:13.391Z,99739.63
2022-08-29T03:21:41.481Z,99740.63
2022-08-29T03:24:08.734Z,99744.75
2022-08-29T03:26:40.150Z,99746.66
2022-08-29T03:29:07.190Z,99748.38
2022-08-29T03:31:35.767Z,99746.31
2022-08-29T03:34:02.878Z,99745.34
2022-08-29T03:36:29.785Z,99748.53
2022-08-29T03:38:56.948Z,99759.75
2022-08-29T03:41:28.910Z,99753.41
2022-08-29T03:43:56.478Z,99768.53
2022-08-29T03:46:24.273Z,99763.25
2022-08-29T03:48:51.279Z,99773.31
2022-08-29T03:51:19.441Z,99772.00
2022-08-29T03:53:47.044Z,99769.69
2022-08-29T03:56:18.924Z,99778.44
2022-08-29T03:58:52.676Z,99773.06
2022-08-29T04:01:22.610Z,99773.41
2022-08-29T04:03:50.804Z,99775.31
2022-08-29T04:06:18.167Z,99766.56
2022-08-29T04:08:48.905Z,99783.88
2022-08-29T04:11:19.717Z,99779.03
2022-08-29T04:13:48.644Z,99784.22
2022-08-29T04:16:19.856Z,99786.53
2022-08-29T04:18:52.933Z,99785.06
2022-08-29T04:21:19.980Z,99790.66
2022-08-29T04:23:48.324Z,99789.19
2022-08-29T04:29:06.829Z,99787.63
2022-08-29T04:31:34.883Z,99794.53
2022-08-29T04:34:02.840Z,99792.47
2022-08-29T04:36:29.789Z,99791.31
2022-08-29T04:38:57.926Z,99794.63
2022-08-29T04:41:25.017Z,99795.81
2022-08-29T04:43:51.985Z,99798.19
2022-08-29T04:46:24.690Z,99798.78
2022-08-29T04:48:53.274Z,99799.66
2022-08-29T04:51:21.374Z,99809.59
2022-08-29T04:53:49.971Z,99809.16
2022-08-29T04:56:17.009Z,99807.28
2022-08-29T04:58:47.659Z,99813.81
2022-08-29T05:01:17.755Z,99821.41
2022-08-29T05:03:52.055Z,99819.31
2022-08-29T05:06:22.501Z,99824.34
2022-08-29T05:08:58.769Z,99828.66
2022-08-29T05:11:30.199Z,99825.44
2022-08-29T05:13:58.815Z,99828.84
2022-08-29T05:16:26.275Z,99835.34
2022-08-29T05:18:54.146Z,99827.84
2022-08-29T05:21:34.952Z,99830.47
2022-08-29T05:24:05.618Z,99832.88
2022-08-29T05:26:43.765Z,99832.28
2022-08-29T05:29:12.411Z,99835.44
2022-08-29T05:31:42.037Z,99835.44
2022-08-29T05:34:32.261Z,99839.72
2022-08-29T05:37:00.487Z,99841.94
2022-08-29T05:39:27.644Z,99845.44
2022-08-29T05:41:56.100Z,99843.09
2022-08-29T05:44:23.392Z,99835.09
2022-08-29T05:46:50.801Z,99838.22
2022-08-29T05:49:22.680Z,99842.16
2022-08-29T05:51:53.519Z,99848.00
2022-08-29T05:54:20.954Z,99844.66
2022-08-29T05:56:50.249Z,99849.44
2022-08-29T05:59:19.524Z,99855.06
2022-08-29T06:01:47.360Z,99850.75
2022-08-29T06:04:14.623Z,99849.84
2022-08-29T06:06:42.174Z,99859.19
2022-08-29T06:09:11.352Z,99854.00
2022-08-29T06:11:40.726Z,99862.69
2022-08-29T06:14:07.985Z,99863.44
2022-08-29T06:16:35.236Z,99862.38
2022-08-29T06:19:02.870Z,99867.41
2022-08-29T06:21:31.194Z,99864.16
2022-08-29T06:23:58.354Z,99855.09
2022-08-29T06:26:27.753Z,99860.06
2022-08-29T06:28:55.038Z,99861.88
2022-08-29T06:31:28.151Z,99868.31
2022-08-29T06:33:58.956Z,99870.72
2022-08-29T06:36:29.682Z,99881.31
2022-08-29T06:39:02.131Z,99882.22
2022-08-29T06:41:29.752Z,99876.16
2022-08-29T06:44:00.360Z,99880.31
2022-08-29T06:46:33.658Z,99878.41
2022-08-29T06:49:04.320Z,99886.69
2022-08-29T06:51:33.357Z,99882.22
2022-08-29T06:54:02.218Z,99888.38
2022-08-29T06:56:32.247Z,99888.53
2022-08-29T06:58:59.669Z,99890.50
2022-08-29T07:01:27.071Z,99889.94
2022-08-29T07:03:57.082Z,99888.28
2022-08-29T07:06:24.871Z,99903.00
2022-08-29T07:08:55.774Z,99906.13
2022-08-29T07:11:27.883Z,99917.41
2022-08-29T07:13:57.966Z,99932.03
2022-08-29T07:16:27.193Z,99928.34
2022-08-29T07:18:55.159Z,99932.38
2022-08-29T07:21:24.741Z,99943.53
2022-08-29T07:23:54.522Z,99950.72
2022-08-29T07:26:27.065Z,99949.47
2022-08-29T07:29:03.242Z,99961.25
2022-08-29T07:31:31.475Z,99953.94
2022-08-29T07:34:02.672Z,99957.81
2022-08-29T07:36:31.492Z,99955.44
2022-08-29T07:38:58.613Z,99955.38
2022-08-29T07:41:26.109Z,99953.63
2022-08-29T07:43:53.085Z,99952.63
2022-08-29T07:46:21.162Z,99946.22
2022-08-29T07:48:48.730Z,99947.66
2022-08-29T07:51:19.305Z,99958.78
2022-08-29T07:53:46.964Z,99961.41
2022-08-29T07:56:40.149Z,99967.09
2022-08-29T07:59:07.959Z,99966.97
2022-08-29T08:01:36.119Z,99972.50
2022-08-29T08:04:04.015Z,99970.69
2022-08-29T08:06:31.984Z,99976.19
2022-08-29T08:09:01.962Z,99978.59
2022-08-29T08:11:29.146Z,99975.72
2022-08-29T08:13:57.721Z,99976.03
2022-08-29T08:16:27.582Z,99981.72
2022-08-29T08:18:56.266Z,99967.88
2022-08-29T08:21:25.317Z,99980.03
2022-08-29T08:23:53.395Z,99971.44
2022-08-29T08:26:21.097Z,99974.72
2022-08-29T08:28:51.182Z,99980.88
2022-08-29T08:31:19.151Z,99976.06
2022-08-29T08:33:47.339Z,99973.22
2022-08-29T08:36:32.384Z,99974.94
2022-08-29T08:39:00.182Z,99976.63
2022-08-29T08:41:27.611Z,99978.53
2022-08-29T08:44:04.382Z,99973.66
2022-08-29T08:46:44.732Z,99969.28
2022-08-29T08:49:21.931Z,99974.47
2022-08-29T08:52:01.919Z,99979.75
2022-08-29T08:54:34.599Z,99970.97
2022-08-29T08:57:11.300Z,99981.84
2022-08-29T08:59:44.084Z,99988.47
2022-08-29T09:02:25.044Z,99985.59
2022-08-29T09:05:20.201Z,99984.13
2022-08-29T09:08:12.528Z,99985.22
2022-08-29T09:11:03.638Z,99983.81
2022-08-29T09:14:03.715Z,99984.00
2022-08-29T09:16:36.210Z,99988.03
2022-08-29T09:19:09.572Z,99982.34
2022-08-29T09:21:48.728Z,99976.22
2022-08-29T09:24:26.306Z,99983.34
2022-08-29T09:26:53.716Z,99977.00
2022-08-29T09:29:28.802Z,99976.97
2022-08-29T09:32:10.713Z,99972.13
2022-08-29T09:35:08.484Z,99983.84
2022-08-29T09:37:32.880Z,99973.00
2022-08-29T09:40:16.580Z,99975.22
2022-08-29T09:43:09.213Z,99969.38
2022-08-29T09:45:36.811Z,99969.06
2022-08-29T09:48:17.697Z,99973.41
2022-08-29T09:50:45.478Z,99965.56
2022-08-29T09:53:24.742Z,99967.38
2022-08-29T09:55:53.795Z,99979.84
2022-08-29T09:58:24.382Z,99968.03
2022-08-29T10:01:00.659Z,99964.66
2022-08-29T10:03:33.021Z,99969.25
2022-08-29T10:06:15.557Z,99962.78
2022-08-29T10:08:57.207Z,99960.09
2022-08-29T10:11:31.062Z,99966.31
2022-08-29T10:14:09.783Z,99952.53
2022-08-29T10:16:51.996Z,99960.75
2022-08-29T10:19:26.061Z,99952.56
2022-08-29T10:22:29.369Z,99954.66
2022-08-29T10:25:09.025Z,99944.22
2022-08-29T10:27:55.879Z,99955.94
2022-08-29T10:30:32.575Z,99943.03
2022-08-29T10:33:05.854Z,99950.19
2022-08-29T10:35:55.555Z,99939.56
2022-08-29T10:38:46.792Z,99935.19
2022-08-29T10:41:32.420Z,99947.81
2022-08-29T10:46:54.342Z,99943.88
2022-08-29T10:49:44.869Z,99942.34
2022-08-29T10:52:33.502Z,99943.59
2022-08-29T10:55:21.156Z,99945.19
2022-08-29T10:58:13.043Z,99931.94
2022-08-29T11:00:49.565Z,99930.94
2022-08-29T11:03:40.701Z,99923.97
2022-08-29T11:06:30.529Z,99925.94
2022-08-29T11:09:41.823Z,99923.03
2022-08-29T11:12:34.463Z,99934.31
2022-08-29T11:15:20.807Z,99925.66
2022-08-29T11:17:58.688Z,99919.69
2022-08-29T11:20:34.154Z,99919.81
2022-08-29T11:23:18.725Z,99923.34
2022-08-29T11:25:47.391Z,99916.19
2022-08-29T11:31:43.763Z,99922.50
2022-08-29T11:34:32.112Z,99917.66
2022-08-29T11:37:34.205Z,99919.84
2022-08-29T11:40:12.194Z,99919.97
2022-08-29T11:42:51.217Z,99913.53
2022-08-29T11:45:37.494Z,99915.78
2022-08-29T11:48:34.049Z,99915.75
2022-08-29T11:51:38.534Z,99909.94
2022-08-29T11:54:25.209Z,99909.53
2022-08-29T11:57:12.668Z,99911.44
2022-08-29T11:59:48.767Z,99903.75
2022-08-29T12:02:31.177Z,99905.53
2022-08-29T12:05:07.788Z,99901.06
2022-08-29T12:07:42.703Z,99904.66
2022-08-29T12:10:25.145Z,99897.53
2022-08-29T12:13:00.768Z,99892.13
2022-08-29T12:15:28.448Z,99901.28
2022-08-29T12:18:22.867Z,99894.69
2022-08-29T12:20:55.959Z,99894.16
2022-08-29T12:23:35.458Z,99890.28
2022-08-29T12:26:25.351Z,99893.00
2022-08-29T12:29:01.928Z,99886.50
2022-08-29T12:32:02.234Z,99879.44
2022-08-29T12:34:52.583Z,99882.91
2022-08-29T12:37:24.069Z,99866.59
2022-08-29T12:39:57.268Z,99870.59
2022-08-29T12:42:46.667Z,99871.53
2022-08-29T12:45:19.470Z,99871.66
2022-08-29T12:48:08.122Z,99870.50
2022-08-29T12:50:45.956Z,99863.44
2022-08-29T12:53:30.213Z,99861.84
2022-08-29T12:56:00.428Z,99862.38
2022-08-29T12:59:05.559Z,99861.97
2022-08-29T13:01:40.838Z,99855.66
2022-08-29T13:04:11.430Z,99851.00
2022-08-29T13:06:51.683Z,99855.00
2022-08-29T13:09:32.962Z,99846.78
2022-08-29T13:12:23.658Z,99846.78
2022-08-29T13:15:08.213Z,99839.53
2022-08-29T13:17:40.584Z,99840.16
2022-08-29T13:20:38.817Z,99842.59
2022-08-29T13:23:06.020Z,99843.34
2022-08-29T13:25:42.623Z,99842.59
2022-08-29T13:28:16.029Z,99834.38
2022-08-29T13:31:02.144Z,99830.28
2022-08-29T13:33:35.248Z,99824.38
2022-08-29T13:36:44.333Z,99825.22
2022-08-29T13:39:26.548Z,99830.81
2022-08-29T13:42:03.159Z,99827.53
2022-08-29T13:44:58.852Z,99824.59
2022-08-29T13:47:30.600Z,99815.44
2022-08-29T13:50:04.693Z,99813.31
2022-08-29T13:52:34.486Z,99819.22
2022-08-29T13:55:02.651Z,99805.84
2022-08-29T13:57:34.861Z,99812.91
2022-08-29T14:00:07.623Z,99807.44
2022-08-29T14:02:35.478Z,99801.31
2022-08-29T14:05:02.599Z,99799.31
2022-08-29T14:07:31.662Z,99797.22
2022-08-29T14:09:59.411Z,99795.53
2022-08-29T14:12:33.850Z,99799.84
2022-08-29T14:15:09.696Z,99782.78
2022-08-29T14:17:41.901Z,99777.66
2022-08-29T14:20:10.518Z,99784.19
2022-08-29T14:22:37.751Z,99792.50
2022-08-29T14:25:06.822Z,99791.84
2022-08-29T14:27:34.627Z,99780.06
2022-08-29T14:30:02.034Z,99778.69
2022-08-29T14:32:29.867Z,99773.88
2022-08-29T14:34:57.300Z,99782.28
2022-08-29T14:37:24.373Z,99780.81
2022-08-29T14:39:52.105Z,99777.13
2022-08-29T14:42:20.341Z,99780.63
2022-08-29T14:44:47.791Z,99780.16
2022-08-29T14:47:14.967Z,99777.13
2022-08-29T14:49:42.684Z,99783.13
2022-08-29T14:52:15.153Z,99774.72
2022-08-29T14:54:43.396Z,99779.44
2022-08-29T14:57:12.437Z,99783.66
2022-08-29T14:59:39.996Z,99781.22
2022-08-29T15:02:08.542Z,99774.34
2022-08-29T15:04:38.405Z,99767.75
2022-08-29T15:07:11.937Z,99778.16
2022-08-29T15:09:42.001Z,99767.94
2022-08-29T15:12:11.939Z,99764.56
2022-08-29T15:14:39.507Z,99760.78
2022-08-29T15:17:08.005Z,99766.16
2022-08-29T15:20:18.173Z,99767.31
2022-08-29T15:22:25.337Z,99762.16
2022-08-29T15:24:53.351Z,99768.44
2022-08-29T15:27:27.297Z,99761.72
2022-08-29T15:29:57.685Z,99757.31
2022-08-29T15:32:25.542Z,99761.59
2022-08-29T15:34:53.808Z,99768.44
2022-08-29T15:37:22.417Z,99758.22
2022-08-29T15:39:54.602Z,99755.91
2022-08-29T15:42:30.262Z,99768.75
2022-08-29T15:45:00.974Z,99761.59
2022-08-29T15:47:33.570Z,99761.88
2022-08-29T15:50:02.323Z,99763.78
2022-08-29T15:52:31.176Z,99760.72
2022-08-29T15:54:58.833Z,99760.38
2022-08-29T15:57:26.765Z,99764.69
2022-08-29T15:59:58.051Z,99759.38
2022-08-29T16:02:27.961Z,99762.13
2022-08-29T16:04:57.325Z,99767.69
2022-08-29T16:07:29.120Z,99758.09
2022-08-29T16:10:01.068Z,99768.22
2022-08-29T16:12:31.036Z,99764.19
2022-08-29T16:15:00.447Z,99756.41
2022-08-29T16:17:31.244Z,99765.22
2022-08-29T16:20:12.079Z,99773.59
2022-08-29T16:22:41.181Z,99775.97
2022-08-29T16:25:09.984Z,99772.19
2022-08-29T16:27:37.502Z,99779.22
2022-08-29T16:30:09.954Z,99774.66
2022-08-29T16:32:38.848Z,99775.56
2022-08-29T16:35:07.054Z,99771.63
2022-08-29T16:37:34.290Z,99770.78
2022-08-29T16:40:03.880Z,99775.72
2022-08-29T16:42:34.202Z,99777.56
2022-08-29T16:45:06.167Z,99779.53
2022-08-29T16:47:34.807Z,99774.13
2022-08-29T16:50:06.555Z,99774.16
2022-08-29T16:52:33.795Z,99771.47
2022-08-29T16:55:01.185Z,99776.53
2022-08-29T16:57:28.308Z,99774.47
2022-08-29T16:59:55.691Z,99778.50
2022-08-29T17:02:23.365Z,99776.44
2022-08-29T17:04:51.440Z,99780.09
2022-08-29T17:07:18.544Z,99774.69
2022-08-29T17:09:45.819Z,99775.66
2022-08-29T17:12:13.415Z,99780.56
2022-08-29T17:14:41.081Z,99769.13
2022-08-29T17:17:08.338Z,99776.84
2022-08-29T17:19:38.739Z,99769.66
2022-08-29T17:22:10.323Z,99767.66
2022-08-29T17:24:37.770Z,99772.53
2022-08-29T17:27:05.475Z,99769.06
2022-08-29T17:29:35.157Z,99773.47
2022-08-29T17:32:10.087Z,99766.88
2022-08-29T17:34:39.385Z,99765.47
2022-08-29T17:37:08.686Z,99771.16
2022-08-29T17:39:41.866Z,99763.38
2022-08-29T17:42:09.552Z,99766.88
2022-08-29T17:44:36.930Z,99766.47
2022-08-29T17:47:04.333Z,99765.75
2022-08-29T17:49:36.885Z,99771.63
2022-08-29T17:52:04.021Z,99767.50
2022-08-29T17:54:32.290Z,99771.50
2022-08-29T17:57:02.304Z,99773.78
2022-08-29T17:59:32.921Z,99774.56
2022-08-29T18:02:05.229Z,99772.34
2022-08-29T18:04:32.667Z,99779.78
2022-08-29T18:06:59.724Z,99782.78
2022-08-29T18:09:27.432Z,99787.56
2022-08-29T18:11:58.292Z,99793.84
2022-08-29T18:14:27.276Z,99787.91
2022-08-29T18:16:55.368Z,99786.88
2022-08-29T18:19:27.098Z,99783.19
2022-08-29T18:21:54.759Z,99792.25
2022-08-29T18:24:24.536Z,99790.44
2022-08-29T18:26:54.072Z,99796.97
2022-08-29T18:29:21.279Z,99803.94
2022-08-29T18:31:49.177Z,99807.03
2022-08-29T18:34:17.608Z,99815.22
2022-08-29T18:36:46.754Z,99814.16
2022-08-29T18:39:15.956Z,99817.84
2022-08-29T18:41:45.814Z,99816.66
2022-08-29T18:44:15.061Z,99818.72
2022-08-29T18:46:47.906Z,99818.25
2022-08-29T18:49:19.797Z,99819.44
2022-08-29T18:51:47.319Z,99824.47
2022-08-29T18:54:18.783Z,99821.06
2022-08-29T18:56:46.902Z,99829.38
2022-08-29T18:59:14.508Z,99833.38
2022-08-29T19:01:44.773Z,99833.34
2022-08-29T19:04:11.990Z,99840.72
2022-08-29T19:06:39.370Z,99838.78
2022-08-29T19:09:06.505Z,99841.00
2022-08-29T19:11:33.611Z,99843.03
2022-08-29T19:14:00.824Z,99841.97
2022-08-29T19:16:28.446Z,99850.38
2022-08-29T19:18:55.808Z,99846.84
2022-08-29T19:21:24.162Z,99857.50
2022-08-29T19:23:53.411Z,99848.41
2022-08-29T19:26:28.942Z,99854.31
2022-08-29T19:28:59.092Z,99858.88
2022-08-29T19:31:27.946Z,99853.00
2022-08-29T19:33:55.133Z,99859.78
2022-08-29T19:36:23.603Z,99858.88
2022-08-29T19:38:51.039Z,99857.41
2022-08-29T19:41:18.720Z,99863.03
2022-08-29T19:43:50.573Z,99863.03
2022-08-29T19:46:22.002Z,99860.06
2022-08-29T19:48:51.190Z,99859.72
2022-08-29T19:51:21.154Z,99855.69
2022-08-29T19:53:48.728Z,99848.84
2022-08-29T19:56:17.690Z,99849.13
2022-08-29T19:58:44.989Z,99842.84
2022-08-29T20:01:12.046Z,99841.63
2022-08-29T20:03:44.909Z,99842.78
2022-08-29T20:06:14.856Z,99842.03
2022-08-29T20:08:48.420Z,99845.47
2022-08-29T20:11:22.126Z,99856.56
2022-08-29T20:13:51.446Z,99860.53
2022-08-29T20:16:24.193Z,99849.72
2022-08-29T20:18:53.024Z,99849.97
2022-08-29T20:21:23.517Z,99839.13
2022-08-29T20:23:57.581Z,99845.16
2022-08-29T20:26:28.472Z,99854.94
2022-08-29T20:28:55.983Z,99855.19
2022-08-29T20:31:23.170Z,99850.91
2022-08-29T20:33:53.560Z,99855.84
2022-08-29T20:36:41.596Z,99859.06
2022-08-29T20:39:14.253Z,99851.56
2022-08-29T20:41:42.101Z,99857.00
2022-08-29T20:44:10.248Z,99860.97
2022-08-29T20:46:44.630Z,99858.56
2022-08-29T20:49:17.344Z,99865.00
2022-08-29T20:51:44.608Z,99867.28
2022-08-29T20:54:14.569Z,99863.19
2022-08-29T20:56:42.517Z,99865.47
2022-08-29T20:59:10.658Z,99860.63
2022-08-29T21:01:38.410Z,99875.94
2022-08-29T21:04:25.617Z,99871.09
2022-08-29T21:06:58.940Z,99881.97
2022-08-29T21:09:27.081Z,99872.47
2022-08-29T21:11:55.073Z,99878.09
2022-08-29T21:14:22.992Z,99877.91
2022-08-29T21:16:52.256Z,99877.16
2022-08-29T21:19:19.720Z,99879.97
2022-08-29T21:21:47.186Z,99877.56
2022-08-29T21:24:15.837Z,99875.34
2022-08-29T21:26:45.480Z,99884.34
2022-08-29T21:29:12.546Z,99877.44
2022-08-29T21:31:42.155Z,99882.13
2022-08-29T21:34:13.045Z,99875.41
2022-08-29T21:36:45.479Z,99890.81
2022-08-29T21:39:13.651Z,99889.06
2022-08-29T21:41:47.222Z,99890.81
2022-08-29T21:44:15.352Z,99891.94
2022-08-29T21:46:44.887Z,99899.28
2022-08-29T21:49:17.123Z,99890.50
2022-08-29T21:51:45.585Z,99895.34
2022-08-29T21:54:17.137Z,99903.94
2022-08-29T21:56:45.839Z,99893.88
2022-08-29T21:59:14.747Z,99898.41
2022-08-29T22:01:43.889Z,99899.53
2022-08-29T22:04:19.186Z,99897.66
2022-08-29T22:06:56.854Z,99899.03
2022-08-29T22:09:25.703Z,99901.09
2022-08-29T22:11:56.321Z,99897.88
2022-08-29T22:14:43.605Z,99901.47
2022-08-29T22:17:11.311Z,99896.84
2022-08-29T22:19:39.037Z,99891.81
2022-08-29T22:22:06.631Z,99892.59
2022-08-29T22:24:37.668Z,99888.47
2022-08-29T22:27:05.391Z,99891.84
2022-08-29T22:29:33.611Z,99894.06
2022-08-29T22:32:01.032Z,99889.59
2022-08-29T22:34:28.333Z,99890.94
2022-08-29T22:36:58.993Z,99889.59
2022-08-29T22:39:26.476Z,99883.63
2022-08-29T22:41:55.784Z,99901.97
2022-08-29T22:47:10.529Z,99902.94
2022-08-29T22:49:38.748Z,99886.28
2022-08-29T22:52:11.622Z,99889.25
2022-08-29T22:54:42.273Z,99889.59
2022-08-29T22:57:15.505Z,99895.97
2022-08-29T22:59:43.946Z,99894.66
2022-08-29T23:02:12.492Z,99905.13
2022-08-29T23:04:40.417Z,99893.94
2022-08-29T23:07:11.853Z,99895.66
2022-08-29T23:09:41.941Z,99900.91
2022-08-29T23:12:12.570Z,99899.06
2022-08-29T23:14:42.265Z,99903.16
2022-08-29T23:17:10.286Z,99899.09
2022-08-29T23:19:41.430Z,99896.88
2022-08-29T23:22:13.422Z,99898.16
2022-08-29T23:24:53.889Z,99900.81
2022-08-29T23:27:29.342Z,99901.53
2022-08-29T23:29:58.873Z,99899.88
2022-08-29T23:32:27.793Z,99892.03
2022-08-29T23:34:55.974Z,99895.78
2022-08-29T23:37:24.354Z,99890.56
2022-08-29T23:39:56.186Z,99889.81
2022-08-29T23:42:23.245Z,99895.41
2022-08-29T23:44:50.893Z,99892.78
2022-08-29T23:47:19.126Z,99886.97
2022-08-29T23:49:49.155Z,99892.03
2022-08-29T23:52:17.520Z,99882.31
2022-08-29T23:54:44.993Z,99889.59
2022-08-29T23:57:12.660Z,99889.59
2022-08-29T23:59:59.749Z,99895.34
